sensor_id;sensor_type;location;lat;lon;timestamp;pressure;altitude;pressure_sealevel;temperature;humidity
78584;BME280;67880;46.082;18.234;2023-05-02T00:00:00;99510.38;;;16.00;55.25
78584;BME280;67880;46.082;18.234;2023-05-02T00:00:31;99506.00;;;15.98;55.16
78584;BME280;67880;46.082;18.234;2023-05-02T00:01:02;99510.38;;;16.00;55.00
78584;BME280;67880;46.082;18.234;2023-05-02T00:01:34;99508.28;;;16.02;55.50
78584;BME280;67880;46.082;18.234;2023-05-02T00:02:06;99506.41;;;16.02;55.03
78584;BME280;67880;46.082;18.234;2023-05-02T00:02:36;99516.03;;;16.05;55.44
78584;BME280;67880;46.082;18.234;2023-05-02T00:03:07;99510.63;;;16.05;55.00
78584;BME280;67880;46.082;18.234;2023-05-02T00:03:38;99513.34;;;16.05;55.14
78584;BME280;67880;46.082;18.234;2023-05-02T00:04:09;99507.09;;;16.04;54.96
78584;BME280;67880;46.082;18.234;2023-05-02T00:04:39;99508.09;;;16.03;55.61
78584;BME280;67880;46.082;18.234;2023-05-02T00:05:10;99512.66;;;16.03;54.73
78584;BME280;67880;46.082;18.234;2023-05-02T00:05:41;99513.50;;;16.03;55.54
78584;BME280;67880;46.082;18.234;2023-05-02T00:06:12;99514.75;;;16.01;55.31
78584;BME280;67880;46.082;18.234;2023-05-02T00:06:42;99513.09;;;16.00;55.16
78584;BME280;67880;46.082;18.234;2023-05-02T00:07:15;99507.88;;;15.98;55.12
78584;BME280;67880;46.082;18.234;2023-05-02T00:07:46;99513.91;;;16.00;55.31
78584;BME280;67880;46.082;18.234;2023-05-02T00:08:17;99509.34;;;16.01;54.97
78584;BME280;67880;46.082;18.234;2023-05-02T00:08:48;99510.16;;;16.01;55.07
78584;BME280;67880;46.082;18.234;2023-05-02T00:09:20;99505.78;;;16.00;55.33
78584;BME280;67880;46.082;18.234;2023-05-02T00:09:50;99502.47;;;15.98;55.37
78584;BME280;67880;46.082;18.234;2023-05-02T00:10:21;99496.59;;;15.94;55.52
78584;BME280;67880;46.082;18.234;2023-05-02T00:10:52;99492.25;;;16.00;55.23
78584;BME280;67880;46.082;18.234;2023-05-02T00:11:22;99496.63;;;16.01;55.27
78584;BME280;67880;46.082;18.234;2023-05-02T00:11:53;99503.91;;;16.01;54.98
78584;BME280;67880;46.082;18.234;2023-05-02T00:12:24;99501.41;;;15.99;55.30
78584;BME280;67880;46.082;18.234;2023-05-02T00:12:54;99497.22;;;15.96;55.76
78584;BME280;67880;46.082;18.234;2023-05-02T00:13:25;99497.22;;;15.96;55.35
78584;BME280;67880;46.082;18.234;2023-05-02T00:13:56;99503.03;;;15.93;55.29
78584;BME280;67880;46.082;18.234;2023-05-02T00:14:26;99497.63;;;15.93;55.45
78584;BME280;67880;46.082;18.234;2023-05-02T00:14:57;99495.56;;;15.95;55.53
78584;BME280;67880;46.082;18.234;2023-05-02T00:15:28;99498.47;;;15.94;55.63
78584;BME280;67880;46.082;18.234;2023-05-02T00:15:58;99494.28;;;15.91;55.81
78584;BME280;67880;46.082;18.234;2023-05-02T00:16:29;99497.38;;;15.88;55.74
78584;BME280;67880;46.082;18.234;2023-05-02T00:17:00;99497.19;;;15.90;55.81
78584;BME280;67880;46.082;18.234;2023-05-02T00:17:30;99490.75;;;15.91;55.66
78584;BME280;67880;46.082;18.234;2023-05-02T00:18:01;99489.88;;;15.90;55.39
78584;BME280;67880;46.082;18.234;2023-05-02T00:18:32;99489.06;;;15.90;55.59
78584;BME280;67880;46.082;18.234;2023-05-02T00:19:03;99497.19;;;15.90;56.08
78584;BME280;67880;46.082;18.234;2023-05-02T00:19:39;99490.94;;;15.89;56.00
78584;BME280;67880;46.082;18.234;2023-05-02T00:20:10;99487.38;;;15.89;56.04
78584;BME280;67880;46.082;18.234;2023-05-02T00:20:41;99486.53;;;15.88;55.94
78584;BME280;67880;46.082;18.234;2023-05-02T00:21:12;99484.03;;;15.87;55.97
78584;BME280;67880;46.082;18.234;2023-05-02T00:21:46;99487.59;;;15.87;55.86
78584;BME280;67880;46.082;18.234;2023-05-02T00:22:17;99489.25;;;15.88;55.79
78584;BME280;67880;46.082;18.234;2023-05-02T00:22:48;99491.13;;;15.88;56.12
78584;BME280;67880;46.082;18.234;2023-05-02T00:23:18;99485.91;;;15.86;55.68
78584;BME280;67880;46.082;18.234;2023-05-02T00:23:50;99490.50;;;15.86;55.67
78584;BME280;67880;46.082;18.234;2023-05-02T00:24:20;99486.28;;;15.83;56.04
78584;BME280;67880;46.082;18.234;2023-05-02T00:25:00;99488.00;;;15.84;56.04
78584;BME280;67880;46.082;18.234;2023-05-02T00:25:31;99482.97;;;15.81;56.07
78584;BME280;67880;46.082;18.234;2023-05-02T00:26:02;99484.22;;;15.79;56.31
78584;BME280;67880;46.082;18.234;2023-05-02T00:26:32;99475.69;;;15.82;56.36
78584;BME280;67880;46.082;18.234;2023-05-02T00:27:03;99484.84;;;15.81;55.95
78584;BME280;67880;46.082;18.234;2023-05-02T00:27:34;99489.63;;;15.79;56.18
78584;BME280;67880;46.082;18.234;2023-05-02T00:28:05;99477.09;;;15.78;55.98
78584;BME280;67880;46.082;18.234;2023-05-02T00:28:35;99480.66;;;15.78;56.00
78584;BME280;67880;46.082;18.234;2023-05-02T00:29:06;99477.75;;;15.80;56.08
78584;BME280;67880;46.082;18.234;2023-05-02T00:29:37;99482.13;;;15.81;55.96
78584;BME280;67880;46.082;18.234;2023-05-02T00:30:08;99478.59;;;15.80;55.93
78584;BME280;67880;46.082;18.234;2023-05-02T00:30:46;99470.66;;;15.79;56.42
78584;BME280;67880;46.082;18.234;2023-05-02T00:31:16;99479.41;;;15.81;56.35
78584;BME280;67880;46.082;18.234;2023-05-02T00:31:47;99477.56;;;15.81;55.83
78584;BME280;67880;46.082;18.234;2023-05-02T00:32:18;99472.13;;;15.81;55.56
78584;BME280;67880;46.082;18.234;2023-05-02T00:32:48;99470.25;;;15.82;55.83
78584;BME280;67880;46.082;18.234;2023-05-02T00:33:19;99475.03;;;15.80;56.00
78584;BME280;67880;46.082;18.234;2023-05-02T00:33:49;99477.56;;;15.81;55.86
78584;BME280;67880;46.082;18.234;2023-05-02T00:34:20;99469.84;;;15.78;56.10
78584;BME280;67880;46.082;18.234;2023-05-02T00:34:51;99476.72;;;15.81;56.12
78584;BME280;67880;46.082;18.234;2023-05-02T00:35:22;99473.81;;;15.82;56.17
78584;BME280;67880;46.082;18.234;2023-05-02T00:35:52;99478.38;;;15.82;56.10
78584;BME280;67880;46.082;18.234;2023-05-02T00:36:23;99474.38;;;15.78;56.33
78584;BME280;67880;46.082;18.234;2023-05-02T00:36:53;99472.53;;;15.78;56.17
78584;BME280;67880;46.082;18.234;2023-05-02T00:37:27;99472.34;;;15.80;56.44
78584;BME280;67880;46.082;18.234;2023-05-02T00:37:58;99477.75;;;15.80;56.41
78584;BME280;67880;46.082;18.234;2023-05-02T00:38:29;99470.84;;;15.77;55.96
78584;BME280;67880;46.082;18.234;2023-05-02T00:38:59;99468.81;;;15.79;56.02
78584;BME280;67880;46.082;18.234;2023-05-02T00:39:30;99468.59;;;15.81;55.85
78584;BME280;67880;46.082;18.234;2023-05-02T00:40:01;99473.81;;;15.82;55.82
78584;BME280;67880;46.082;18.234;2023-05-02T00:40:48;99468.38;;;15.82;55.93
78584;BME280;67880;46.082;18.234;2023-05-02T00:41:19;99470.25;;;15.82;56.59
78584;BME280;67880;46.082;18.234;2023-05-02T00:41:58;99475.69;;;15.82;56.09
78584;BME280;67880;46.082;18.234;2023-05-02T00:42:32;99472.97;;;15.82;55.94
78584;BME280;67880;46.082;18.234;2023-05-02T00:43:03;99465.88;;;15.81;55.87
78584;BME280;67880;46.082;18.234;2023-05-02T00:43:34;99474.84;;;15.81;56.02
78584;BME280;67880;46.082;18.234;2023-05-02T00:44:05;99475.69;;;15.82;56.19
78584;BME280;67880;46.082;18.234;2023-05-02T00:44:37;99468.38;;;15.82;56.25
78584;BME280;67880;46.082;18.234;2023-05-02T00:45:10;99472.13;;;15.81;56.54
78584;BME280;67880;46.082;18.234;2023-05-02T00:45:42;99464.59;;;15.77;56.33
78584;BME280;67880;46.082;18.234;2023-05-02T00:46:13;99467.97;;;15.79;56.29
78584;BME280;67880;46.082;18.234;2023-05-02T00:46:44;99463.38;;;15.79;56.29
78584;BME280;67880;46.082;18.234;2023-05-02T00:47:15;99465.44;;;15.77;56.33
78584;BME280;67880;46.082;18.234;2023-05-02T00:47:45;99472.94;;;15.75;56.50
78584;BME280;67880;46.082;18.234;2023-05-02T00:48:16;99470.22;;;15.75;56.49
78584;BME280;67880;46.082;18.234;2023-05-02T00:48:49;99472.28;;;15.73;56.32
78584;BME280;67880;46.082;18.234;2023-05-02T00:49:20;99473.13;;;15.74;56.60
78584;BME280;67880;46.082;18.234;2023-05-02T00:49:51;99467.72;;;15.74;56.60
78584;BME280;67880;46.082;18.234;2023-05-02T00:50:21;99466.88;;;15.73;56.35
78584;BME280;67880;46.082;18.234;2023-05-02T00:50:55;99469.59;;;15.73;56.10
78584;BME280;67880;46.082;18.234;2023-05-02T00:51:26;99479.59;;;15.73;56.34
78584;BME280;67880;46.082;18.234;2023-05-02T00:51:58;99473.13;;;15.74;56.26
78584;BME280;67880;46.082;18.234;2023-05-02T00:52:28;99470.81;;;15.70;56.27
78584;BME280;67880;46.082;18.234;2023-05-02T00:52:59;99462.50;;;15.72;56.40
78584;BME280;67880;46.082;18.234;2023-05-02T00:53:31;99465.22;;;15.72;56.15
78584;BME280;67880;46.082;18.234;2023-05-02T00:54:02;99471.47;;;15.73;56.58
78584;BME280;67880;46.082;18.234;2023-05-02T00:54:32;99464.16;;;15.73;56.06
78584;BME280;67880;46.082;18.234;2023-05-02T00:55:03;99468.53;;;15.74;56.22
78584;BME280;67880;46.082;18.234;2023-05-02T00:55:35;99460.63;;;15.73;56.14
78584;BME280;67880;46.082;18.234;2023-05-02T00:56:07;99464.16;;;15.73;56.08
78584;BME280;67880;46.082;18.234;2023-05-02T00:56:39;99464.16;;;15.73;56.14
78584;BME280;67880;46.082;18.234;2023-05-02T00:57:09;99458.75;;;15.73;56.52
78584;BME280;67880;46.082;18.234;2023-05-02T00:57:40;99466.69;;;15.75;56.40
78584;BME280;67880;46.082;18.234;2023-05-02T00:58:13;99470.84;;;15.77;55.99
78584;BME280;67880;46.082;18.234;2023-05-02T00:58:46;99464.44;;;15.78;56.17
78584;BME280;67880;46.082;18.234;2023-05-02T00:59:17;99468.97;;;15.78;56.00
78584;BME280;67880;46.082;18.234;2023-05-02T00:59:48;99462.72;;;15.77;56.52
78584;BME280;67880;46.082;18.234;2023-05-02T01:00:22;99459.00;;;15.78;55.81
78584;BME280;67880;46.082;18.234;2023-05-02T01:03:18;99461.72;;;15.78;56.19
78584;BME280;67880;46.082;18.234;2023-05-02T01:05:35;99453.38;;;15.80;56.15
78584;BME280;67880;46.082;18.234;2023-05-02T01:08:09;99457.56;;;15.82;55.85
78584;BME280;67880;46.082;18.234;2023-05-02T01:08:51;99453.81;;;15.83;55.42
78584;BME280;67880;46.082;18.234;2023-05-02T01:10:33;99464.84;;;15.82;55.93
78584;BME280;67880;46.082;18.234;2023-05-02T01:11:14;99454.84;;;15.82;56.14
78584;BME280;67880;46.082;18.234;2023-05-02T01:12:05;99454.22;;;15.80;55.74
78584;BME280;67880;46.082;18.234;2023-05-02T01:12:44;99453.63;;;15.85;55.83
78584;BME280;67880;46.082;18.234;2023-05-02T01:13:20;99456.53;;;15.83;55.89
78584;BME280;67880;46.082;18.234;2023-05-02T01:13:54;99450.72;;;15.86;55.43
78584;BME280;67880;46.082;18.234;2023-05-02T01:14:37;99455.31;;;15.86;56.08
78584;BME280;67880;46.082;18.234;2023-05-02T01:15:16;99457.19;;;15.85;55.57
78584;BME280;67880;46.082;18.234;2023-05-02T01:15:52;99457.34;;;15.84;55.93
78584;BME280;67880;46.082;18.234;2023-05-02T01:16:24;99461.75;;;15.85;55.55
78584;BME280;67880;46.082;18.234;2023-05-02T01:16:56;99451.75;;;15.85;55.72
78584;BME280;67880;46.082;18.234;2023-05-02T01:17:31;99463.63;;;15.84;55.95
78584;BME280;67880;46.082;18.234;2023-05-02T01:18:04;99461.94;;;15.83;56.26
78584;BME280;67880;46.082;18.234;2023-05-02T01:18:37;99452.16;;;15.82;56.25
78584;BME280;67880;46.082;18.234;2023-05-02T01:19:33;99466.09;;;15.79;56.05
78584;BME280;67880;46.082;18.234;2023-05-02T01:20:09;99461.06;;;15.76;56.17
78584;BME280;67880;46.082;18.234;2023-05-02T01:20:43;99464.81;;;15.75;56.16
78584;BME280;67880;46.082;18.234;2023-05-02T01:21:15;99458.34;;;15.76;56.31
78584;BME280;67880;46.082;18.234;2023-05-02T01:21:48;99457.09;;;15.72;56.31
78584;BME280;67880;46.082;18.234;2023-05-02T01:22:21;99459.97;;;15.70;56.36
78584;BME280;67880;46.082;18.234;2023-05-02T01:22:59;99459.97;;;15.70;56.76
78584;BME280;67880;46.082;18.234;2023-05-02T01:24:25;99460.97;;;15.63;56.37
78584;BME280;67880;46.082;18.234;2023-05-02T01:25:01;99464.50;;;15.63;56.81
78584;BME280;67880;46.082;18.234;2023-05-02T01:25:54;99462.16;;;15.60;57.04
78584;BME280;67880;46.082;18.234;2023-05-02T01:27:14;99466.91;;;15.58;56.89
78584;BME280;67880;46.082;18.234;2023-05-02T01:29:05;99457.75;;;15.53;57.00
78584;BME280;67880;46.082;18.234;2023-05-02T01:29:39;99451.88;;;15.49;57.39
78584;BME280;67880;46.082;18.234;2023-05-02T01:30:13;99452.72;;;15.50;57.25
78584;BME280;67880;46.082;18.234;2023-05-02T01:30:46;99454.78;;;15.48;57.44
78584;BME280;67880;46.082;18.234;2023-05-02T01:31:20;99451.63;;;15.44;57.33
78584;BME280;67880;46.082;18.234;2023-05-02T01:31:54;99463.47;;;15.43;57.39
78584;BME280;67880;46.082;18.234;2023-05-02T01:32:28;99450.59;;;15.45;57.46
78584;BME280;67880;46.082;18.234;2023-05-02T01:33:02;99456.41;;;15.42;57.19
78584;BME280;67880;46.082;18.234;2023-05-02T01:33:34;99447.25;;;15.43;57.51
78584;BME280;67880;46.082;18.234;2023-05-02T01:34:08;99451.63;;;15.44;57.86
78584;BME280;67880;46.082;18.234;2023-05-02T01:34:42;99453.50;;;15.43;57.93
78584;BME280;67880;46.082;18.234;2023-05-02T01:35:15;99453.69;;;15.42;57.80
78584;BME280;67880;46.082;18.234;2023-05-02T01:35:50;99456.59;;;15.40;57.78
78584;BME280;67880;46.082;18.234;2023-05-02T01:36:24;99453.25;;;15.38;57.67
78584;BME280;67880;46.082;18.234;2023-05-02T01:36:58;99453.25;;;15.38;57.92
78584;BME280;67880;46.082;18.234;2023-05-02T01:37:31;99445.31;;;15.37;57.54
78584;BME280;67880;46.082;18.234;2023-05-02T01:38:05;99449.91;;;15.36;57.66
78584;BME280;67880;46.082;18.234;2023-05-02T01:38:37;99449.06;;;15.36;57.96
78584;BME280;67880;46.082;18.234;2023-05-02T01:39:13;99442.00;;;15.35;57.98
78584;BME280;67880;46.082;18.234;2023-05-02T01:39:45;99449.06;;;15.36;57.95
78584;BME280;67880;46.082;18.234;2023-05-02T01:40:20;99454.88;;;15.33;57.98
78584;BME280;67880;46.082;18.234;2023-05-02T01:40:54;99444.06;;;15.33;57.95
78584;BME280;67880;46.082;18.234;2023-05-02T01:41:30;99447.16;;;15.30;58.17
78584;BME280;67880;46.082;18.234;2023-05-02T01:42:02;99445.47;;;15.29;58.35
78584;BME280;67880;46.082;18.234;2023-05-02T01:42:35;99441.72;;;15.30;57.84
78584;BME280;67880;46.082;18.234;2023-05-02T01:43:07;99447.97;;;15.30;58.36
78584;BME280;67880;46.082;18.234;2023-05-02T01:43:39;99447.34;;;15.28;58.26
78584;BME280;67880;46.082;18.234;2023-05-02T01:44:12;99448.19;;;15.29;58.36
78584;BME280;67880;46.082;18.234;2023-05-02T01:44:46;99445.00;;;15.25;58.16
78584;BME280;67880;46.082;18.234;2023-05-02T01:45:20;99446.06;;;15.24;58.49
78584;BME280;67880;46.082;18.234;2023-05-02T01:45:54;99447.91;;;15.24;58.19
78584;BME280;67880;46.082;18.234;2023-05-02T01:46:30;99444.38;;;15.23;58.76
78584;BME280;67880;46.082;18.234;2023-05-02T01:47:04;99447.09;;;15.23;58.51
78584;BME280;67880;46.082;18.234;2023-05-02T01:47:39;99447.91;;;15.24;58.21
78584;BME280;67880;46.082;18.234;2023-05-02T01:48:13;99448.75;;;15.24;58.23
78584;BME280;67880;46.082;18.234;2023-05-02T01:48:47;99450.25;;;15.27;57.81
78584;BME280;67880;46.082;18.234;2023-05-02T01:49:37;99445.69;;;15.27;57.86
78584;BME280;67880;46.082;18.234;2023-05-02T01:50:12;99442.31;;;15.25;57.86
78584;BME280;67880;46.082;18.234;2023-05-02T01:50:46;99443.81;;;15.28;58.45
78584;BME280;67880;46.082;18.234;2023-05-02T01:51:20;99434.19;;;15.25;58.04
78584;BME280;67880;46.082;18.234;2023-05-02T01:51:52;99444.63;;;15.28;58.25
78584;BME280;67880;46.082;18.234;2023-05-02T01:52:25;99445.47;;;15.29;57.98
78584;BME280;67880;46.082;18.234;2023-05-02T01:52:57;99442.31;;;15.25;58.55
78584;BME280;67880;46.082;18.234;2023-05-02T01:53:29;99440.28;;;15.27;58.01
78584;BME280;67880;46.082;18.234;2023-05-02T01:54:04;99436.72;;;15.27;57.97
78584;BME280;67880;46.082;18.234;2023-05-02T01:54:37;99440.91;;;15.29;57.85
78584;BME280;67880;46.082;18.234;2023-05-02T01:55:13;99446.94;;;15.31;57.65
78584;BME280;67880;46.082;18.234;2023-05-02T01:55:45;99442.00;;;15.35;57.84
78584;BME280;67880;46.082;18.234;2023-05-02T01:56:18;99436.13;;;15.31;57.87
78584;BME280;67880;46.082;18.234;2023-05-02T01:56:50;99438.00;;;15.31;57.54
78584;BME280;67880;46.082;18.234;2023-05-02T01:57:21;99441.94;;;15.28;57.77
78584;BME280;67880;46.082;18.234;2023-05-02T01:57:53;99443.16;;;15.26;58.07
78584;BME280;67880;46.082;18.234;2023-05-02T01:58:28;99449.22;;;15.28;58.05
78584;BME280;67880;46.082;18.234;2023-05-02T01:59:01;99445.47;;;15.29;58.01
78584;BME280;67880;46.082;18.234;2023-05-02T01:59:34;99449.00;;;15.29;57.60
78584;BME280;67880;46.082;18.234;2023-05-02T02:00:07;99448.56;;;15.26;57.81
78584;BME280;67880;46.082;18.234;2023-05-02T02:00:39;99452.09;;;15.26;58.29
78584;BME280;67880;46.082;18.234;2023-05-02T02:01:12;99447.53;;;15.27;58.38
78584;BME280;67880;46.082;18.234;2023-05-02T02:01:45;99453.13;;;15.25;57.92
78584;BME280;67880;46.082;18.234;2023-05-02T02:02:16;99446.06;;;15.24;58.16
78584;BME280;67880;46.082;18.234;2023-05-02T02:02:50;99449.59;;;15.25;58.07
78584;BME280;67880;46.082;18.234;2023-05-02T02:03:23;99461.44;;;15.24;58.12
78584;BME280;67880;46.082;18.234;2023-05-02T02:03:55;99456.88;;;15.24;58.15
78584;BME280;67880;46.082;18.234;2023-05-02T02:04:28;99447.28;;;15.22;57.87
78584;BME280;67880;46.082;18.234;2023-05-02T02:05:01;99445.63;;;15.21;57.92
78584;BME280;67880;46.082;18.234;2023-05-02T02:05:36;99439.53;;;15.18;58.33
78584;BME280;67880;46.082;18.234;2023-05-02T02:06:09;99447.50;;;15.20;58.10
78584;BME280;67880;46.082;18.234;2023-05-02T02:06:44;99447.50;;;15.20;57.98
78584;BME280;67880;46.082;18.234;2023-05-02T02:07:16;99453.91;;;15.19;58.27
78584;BME280;67880;46.082;18.234;2023-05-02T02:07:47;99449.31;;;15.20;57.98
78584;BME280;67880;46.082;18.234;2023-05-02T02:08:17;99444.13;;;15.18;57.97
78584;BME280;67880;46.082;18.234;2023-05-02T02:08:49;99447.66;;;15.18;58.00
78584;BME280;67880;46.082;18.234;2023-05-02T02:09:20;99451.41;;;15.17;57.86
78584;BME280;67880;46.082;18.234;2023-05-02T02:09:51;99442.06;;;15.20;57.63
78584;BME280;67880;46.082;18.234;2023-05-02T02:10:25;99447.91;;;15.24;57.53
78584;BME280;67880;46.082;18.234;2023-05-02T02:11:05;99441.69;;;15.23;57.78
78584;BME280;67880;46.082;18.234;2023-05-02T02:12:00;99443.53;;;15.23;57.81
78584;BME280;67880;46.082;18.234;2023-05-02T02:12:42;99442.31;;;15.25;57.77
78584;BME280;67880;46.082;18.234;2023-05-02T02:13:26;99436.06;;;15.25;57.62
78584;BME280;67880;46.082;18.234;2023-05-02T02:14:05;99433.34;;;15.25;57.67
78584;BME280;67880;46.082;18.234;2023-05-02T02:14:40;99445.22;;;15.24;57.71
78584;BME280;67880;46.082;18.234;2023-05-02T02:15:50;99438.34;;;15.21;58.18
78584;BME280;67880;46.082;18.234;2023-05-02T02:16:30;99435.63;;;15.21;57.89
78584;BME280;67880;46.082;18.234;2023-05-02T02:17:11;99440.22;;;15.21;57.76
78584;BME280;67880;46.082;18.234;2023-05-02T02:17:47;99443.91;;;15.20;57.65
78584;BME280;67880;46.082;18.234;2023-05-02T02:18:20;99440.22;;;15.21;57.55
78584;BME280;67880;46.082;18.234;2023-05-02T02:18:55;99444.59;;;15.22;58.16
78584;BME280;67880;46.082;18.234;2023-05-02T02:19:28;99443.09;;;15.19;57.70
78584;BME280;67880;46.082;18.234;2023-05-02T02:20:02;99444.59;;;15.22;58.07
78584;BME280;67880;46.082;18.234;2023-05-02T02:20:34;99445.63;;;15.21;58.02
78584;BME280;67880;46.082;18.234;2023-05-02T02:21:10;99442.25;;;15.18;57.92
78584;BME280;67880;46.082;18.234;2023-05-02T02:21:46;99442.91;;;15.21;57.72
78584;BME280;67880;46.082;18.234;2023-05-02T02:22:19;99433.97;;;15.20;57.74
78584;BME280;67880;46.082;18.234;2023-05-02T02:22:52;99432.25;;;15.19;58.30
78584;BME280;67880;46.082;18.234;2023-05-02T02:23:26;99438.72;;;15.18;58.46
78584;BME280;67880;46.082;18.234;2023-05-02T02:24:01;99445.16;;;15.17;58.18
78584;BME280;67880;46.082;18.234;2023-05-02T02:24:36;99439.13;;;15.15;58.30
78584;BME280;67880;46.082;18.234;2023-05-02T02:25:14;99441.00;;;15.14;58.08
78584;BME280;67880;46.082;18.234;2023-05-02T02:25:45;99439.69;;;15.10;58.34
78584;BME280;67880;46.082;18.234;2023-05-02T02:26:18;99438.22;;;15.08;58.64
78584;BME280;67880;46.082;18.234;2023-05-02T02:26:50;99430.94;;;15.08;58.27
78584;BME280;67880;46.082;18.234;2023-05-02T02:27:21;99434.84;;;15.06;58.82
78584;BME280;67880;46.082;18.234;2023-05-02T02:27:52;99436.53;;;15.07;58.73
78584;BME280;67880;46.082;18.234;2023-05-02T02:28:23;99437.38;;;15.07;58.29
78584;BME280;67880;46.082;18.234;2023-05-02T02:28:55;99439.06;;;15.08;58.35
78584;BME280;67880;46.082;18.234;2023-05-02T02:29:25;99437.56;;;15.06;58.52
78584;BME280;67880;46.082;18.234;2023-05-02T02:29:56;99435.88;;;15.05;58.75
78584;BME280;67880;46.082;18.234;2023-05-02T02:30:27;99435.06;;;15.04;58.49
78584;BME280;67880;46.082;18.234;2023-05-02T02:30:58;99434.03;;;15.05;58.31
78584;BME280;67880;46.082;18.234;2023-05-02T02:31:32;99432.16;;;15.06;58.60
78584;BME280;67880;46.082;18.234;2023-05-02T02:32:04;99431.91;;;15.01;59.00
78584;BME280;67880;46.082;18.234;2023-05-02T02:32:35;99435.63;;;15.00;58.91
78584;BME280;67880;46.082;18.234;2023-05-02T02:33:06;99437.13;;;15.02;59.06
78584;BME280;67880;46.082;18.234;2023-05-02T02:33:37;99435.25;;;15.03;58.76
78584;BME280;67880;46.082;18.234;2023-05-02T02:34:07;99432.75;;;15.01;59.07
78584;BME280;67880;46.082;18.234;2023-05-02T02:34:38;99433.75;;;15.00;58.78
78584;BME280;67880;46.082;18.234;2023-05-02T02:35:10;99434.78;;;14.99;59.13
78584;BME280;67880;46.082;18.234;2023-05-02T02:35:43;99432.28;;;14.98;59.10
78584;BME280;67880;46.082;18.234;2023-05-02T02:37:18;99423.34;;;14.97;59.23
78584;BME280;67880;46.082;18.234;2023-05-02T02:38:01;99435.19;;;14.96;59.17
78584;BME280;67880;46.082;18.234;2023-05-02T02:39:01;99432.84;;;14.93;59.08
78584;BME280;67880;46.082;18.234;2023-05-02T02:39:55;99430.34;;;14.92;59.40
78584;BME280;67880;46.082;18.234;2023-05-02T02:40:31;99436.59;;;14.92;59.13
78584;BME280;67880;46.082;18.234;2023-05-02T02:41:21;99433.25;;;14.90;59.37
78584;BME280;67880;46.082;18.234;2023-05-02T02:42:04;99430.56;;;14.90;59.05
78584;BME280;67880;46.082;18.234;2023-05-02T02:43:58;99424.06;;;14.84;59.38
78584;BME280;67880;46.082;18.234;2023-05-02T02:44:46;99425.53;;;14.87;59.38
78584;BME280;67880;46.082;18.234;2023-05-02T02:45:33;99429.47;;;14.84;59.40
78584;BME280;67880;46.082;18.234;2023-05-02T02:46:49;99429.00;;;14.81;59.85
78584;BME280;67880;46.082;18.234;2023-05-02T02:47:31;99429.66;;;14.83;59.76
78584;BME280;67880;46.082;18.234;2023-05-02T02:48:33;99427.59;;;14.85;59.38
78584;BME280;67880;46.082;18.234;2023-05-02T02:50:10;99420.03;;;14.80;59.77
78584;BME280;67880;46.082;18.234;2023-05-02T02:51:13;99411.50;;;14.77;59.62
78584;BME280;67880;46.082;18.234;2023-05-02T02:52:06;99414.00;;;14.78;60.06
78584;BME280;67880;46.082;18.234;2023-05-02T02:52:47;99422.75;;;14.80;59.81
78584;BME280;67880;46.082;18.234;2023-05-02T02:53:25;99416.16;;;14.83;59.25
78584;BME280;67880;46.082;18.234;2023-05-02T02:54:46;99422.13;;;14.78;60.30
78584;BME280;67880;46.082;18.234;2023-05-02T02:55:30;99422.75;;;14.80;60.26
78584;BME280;67880;46.082;18.234;2023-05-02T02:56:12;99424.63;;;14.80;60.09
78584;BME280;67880;46.082;18.234;2023-05-02T02:56:47;99430.03;;;14.80;60.11
78584;BME280;67880;46.082;18.234;2023-05-02T02:57:29;99425.44;;;14.80;59.87
78584;BME280;67880;46.082;18.234;2023-05-02T03:00:38;99418.19;;;14.81;59.56
78584;BME280;67880;46.082;18.234;2023-05-02T03:01:16;99425.28;;;14.82;59.46
78584;BME280;67880;46.082;18.234;2023-05-02T03:01:58;99434.59;;;14.79;59.77
78584;BME280;67880;46.082;18.234;2023-05-02T03:02:34;99427.31;;;14.80;59.66
78584;BME280;67880;46.082;18.234;2023-05-02T03:03:06;99430.69;;;14.82;59.26
78584;BME280;67880;46.082;18.234;2023-05-02T03:03:39;99426.94;;;14.83;59.80
78584;BME280;67880;46.082;18.234;2023-05-02T03:04:12;99430.84;;;14.80;59.84
78584;BME280;67880;46.082;18.234;2023-05-02T03:04:46;99426.22;;;14.74;59.75
78584;BME280;67880;46.082;18.234;2023-05-02T03:05:20;99429.59;;;14.76;59.73
78584;BME280;67880;46.082;18.234;2023-05-02T03:05:51;99422.94;;;14.79;59.89
78584;BME280;67880;46.082;18.234;2023-05-02T03:06:23;99423.59;;;14.81;59.68
78584;BME280;67880;46.082;18.234;2023-05-02T03:06:55;99425.44;;;14.80;59.49
78584;BME280;67880;46.082;18.234;2023-05-02T03:07:29;99429.84;;;14.81;59.65
78584;BME280;67880;46.082;18.234;2023-05-02T03:07:59;99429.19;;;14.79;59.71
78584;BME280;67880;46.082;18.234;2023-05-02T03:08:41;99427.53;;;14.78;60.04
78584;BME280;67880;46.082;18.234;2023-05-02T03:09:15;99421.09;;;14.79;59.68
78584;BME280;67880;46.082;18.234;2023-05-02T03:09:49;99430.84;;;14.80;60.09
78584;BME280;67880;46.082;18.234;2023-05-02T03:10:21;99428.34;;;14.79;59.95
78584;BME280;67880;46.082;18.234;2023-05-02T03:10:52;99424.63;;;14.80;59.69
78584;BME280;67880;46.082;18.234;2023-05-02T03:11:22;99427.72;;;14.77;59.56
78584;BME280;67880;46.082;18.234;2023-05-02T03:11:53;99426.88;;;14.76;59.66
78584;BME280;67880;46.082;18.234;2023-05-02T03:12:23;99431.63;;;14.74;59.94
78584;BME280;67880;46.082;18.234;2023-05-02T03:12:54;99435.81;;;14.77;59.91
78584;BME280;67880;46.082;18.234;2023-05-02T03:13:24;99424.19;;;14.76;60.15
78584;BME280;67880;46.082;18.234;2023-05-02T03:13:55;99419.97;;;14.74;60.18
78584;BME280;67880;46.082;18.234;2023-05-02T03:14:26;99426.06;;;14.76;59.60
78584;BME280;67880;46.082;18.234;2023-05-02T03:16:00;99422.69;;;14.74;60.24
78584;BME280;67880;46.082;18.234;2023-05-02T03:16:40;99425.59;;;14.72;60.25